Baltimore, Maryland
Traffic Map
Current Weather Conditions
Baltimore, Maryland
Overcast Drizzle
Overcast
54°
Feels Like: 54°
Wind Chill: 54° Ceiling: 200
Heat Index: 54° Visibility: 0.25mi
Dew Point: 53° Wind: 8mph
Humidity: 97% Direction: 110° (ESE)
Pressure: 29.96in Gusts: 0mph
Raw Report DataKBWI 021054Z 11007KT 1/4SM R10/3000V4500FT -DZ FG VV002 12/12 A2996 RMK AO2 SLP143 P0001 T01220117
Traffic Incident Summary
Active as of:
Severity:
Category:
InformationThere was an issue retrieving the traffic information for this location. Please try a different location or try again shortly.
Advertisements
Track Severe Weather on mobile